createdAt,value
2022-09-07T00:01:31.409Z,4.70
2022-09-07T00:06:35.138Z,4.60
2022-09-07T00:11:38.751Z,3.30
2022-09-07T00:16:43.398Z,5.60
2022-09-07T00:21:47.007Z,6.10
2022-09-07T00:26:50.633Z,6.20
2022-09-07T00:31:54.232Z,4.70
2022-09-07T00:36:57.866Z,7.00
2022-09-07T00:42:01.782Z,4.40
2022-09-07T00:47:44.218Z,4.80
2022-09-07T00:52:58.589Z,5.90
2022-09-07T00:58:03.717Z,7.70
2022-09-07T01:03:08.363Z,5.40
2022-09-07T01:08:14.540Z,4.50
2022-09-07T01:13:18.136Z,4.80
2022-09-07T01:18:56.971Z,4.00
2022-09-07T01:24:40.691Z,4.90
2022-09-07T01:30:04.945Z,4.30
2022-09-07T01:35:32.164Z,5.20
2022-09-07T01:40:54.006Z,4.30
2022-09-07T01:46:02.367Z,4.70
2022-09-07T01:51:13.088Z,5.00
2022-09-07T01:56:24.942Z,4.60
2022-09-07T02:02:15.196Z,5.30
2022-09-07T02:07:35.991Z,6.90
2022-09-07T02:13:14.816Z,5.50
2022-09-07T02:18:21.505Z,5.40
2022-09-07T02:23:31.052Z,3.50
2022-09-07T02:28:37.827Z,4.20
2022-09-07T02:33:43.012Z,4.60
2022-09-07T02:38:46.635Z,3.60
2022-09-07T02:43:50.141Z,3.60
2022-09-07T02:48:59.700Z,4.70
2022-09-07T02:54:50.610Z,4.50
2022-09-07T03:00:19.512Z,4.20
2022-09-07T03:05:50.092Z,4.50
2022-09-07T03:10:55.244Z,4.70
2022-09-07T03:15:59.463Z,5.40
2022-09-07T03:21:03.094Z,7.50
2022-09-07T03:26:07.126Z,7.40
2022-09-07T03:31:10.794Z,6.10
2022-09-07T03:36:14.462Z,5.50
2022-09-07T03:41:18.387Z,3.30
2022-09-07T03:46:22.283Z,5.90
2022-09-07T03:51:26.245Z,4.30
2022-09-07T03:56:29.962Z,5.40
2022-09-07T04:01:33.807Z,6.30
2022-09-07T04:06:37.402Z,4.70
2022-09-07T04:11:41.225Z,4.20
2022-09-07T04:16:45.931Z,4.40
2022-09-07T04:21:49.795Z,6.50
2022-09-07T04:26:53.674Z,4.00
2022-09-07T04:31:57.337Z,4.20
2022-09-07T04:37:00.861Z,5.30
2022-09-07T04:42:05.210Z,6.60
2022-09-07T04:47:09.054Z,5.80
2022-09-07T04:52:12.631Z,6.60
2022-09-07T04:57:16.345Z,5.60
2022-09-07T05:02:20.133Z,5.70
2022-09-07T05:07:23.739Z,6.70
2022-09-07T05:12:27.519Z,4.10
2022-09-07T05:17:31.547Z,5.60
2022-09-07T05:22:35.954Z,5.00
2022-09-07T05:27:39.807Z,7.10
2022-09-07T05:32:46.597Z,5.60
2022-09-07T05:37:51.203Z,6.30
2022-09-07T05:42:54.768Z,8.50
2022-09-07T05:47:58.377Z,5.40
2022-09-07T05:53:03.021Z,8.20
2022-09-07T05:58:07.051Z,9.60
2022-09-07T06:03:11.566Z,9.10
2022-09-07T06:08:15.412Z,8.30
2022-09-07T06:13:19.014Z,9.00
2022-09-07T06:18:22.856Z,8.10
2022-09-07T06:23:26.470Z,4.70
2022-09-07T06:28:43.011Z,6.60
2022-09-07T06:33:50.402Z,7.20
2022-09-07T06:38:56.380Z,6.20
2022-09-07T06:44:00.104Z,9.80
2022-09-07T06:49:03.929Z,11.90
2022-09-07T06:59:31.239Z,6.80
2022-09-07T07:04:40.172Z,8.50
2022-09-07T07:09:44.405Z,11.50
2022-09-07T07:14:47.905Z,11.30
2022-09-07T07:19:51.537Z,7.50
2022-09-07T07:24:55.085Z,8.90
2022-09-07T07:29:58.671Z,15.80
2022-09-07T07:35:02.236Z,7.60
2022-09-07T07:50:40.694Z,7.80
2022-09-07T07:55:44.552Z,7.50
2022-09-07T08:00:56.944Z,5.70
2022-09-07T08:06:08.442Z,7.30
2022-09-07T08:11:18.947Z,8.10
2022-09-07T08:16:23.431Z,5.00
2022-09-07T08:21:27.705Z,5.10
2022-09-07T08:26:31.523Z,11.80
2022-09-07T08:31:35.384Z,9.60
2022-09-07T08:36:38.962Z,8.50
2022-09-07T08:42:19.653Z,10.80
2022-09-07T08:47:41.807Z,10.30
2022-09-07T08:53:29.959Z,6.30
2022-09-07T08:58:53.559Z,7.60
2022-09-07T09:09:49.437Z,6.90
2022-09-07T09:15:21.855Z,7.10
2022-09-07T09:20:46.742Z,10.20
2022-09-07T09:25:57.526Z,6.00
2022-09-07T09:31:01.464Z,7.10
2022-09-07T09:36:28.425Z,6.60
2022-09-07T09:41:39.613Z,6.10
2022-09-07T09:47:29.608Z,5.70
2022-09-07T09:52:29.872Z,5.30
2022-09-07T10:09:03.327Z,4.00
2022-09-07T10:14:31.961Z,5.80
2022-09-07T10:19:39.886Z,4.50
2022-09-07T10:24:44.010Z,4.60
2022-09-07T10:29:48.183Z,4.30
2022-09-07T10:35:30.469Z,4.10
2022-09-07T10:41:04.805Z,9.80
2022-09-07T10:47:02.673Z,5.30
2022-09-07T10:52:46.251Z,4.00
2022-09-07T10:58:15.586Z,3.90
2022-09-07T11:03:43.009Z,5.10
2022-09-07T11:09:17.504Z,5.00
2022-09-07T11:14:24.896Z,7.60
2022-09-07T11:20:06.623Z,3.80
2022-09-07T11:25:38.184Z,6.00
2022-09-07T11:30:56.681Z,5.00
2022-09-07T11:36:12.649Z,4.50
2022-09-07T11:41:42.395Z,4.60
2022-09-07T11:47:20.565Z,3.80
2022-09-07T11:52:41.214Z,4.20
2022-09-07T11:58:36.595Z,4.00
2022-09-07T12:03:49.188Z,3.40
2022-09-07T12:09:20.286Z,5.40
2022-09-07T12:15:08.833Z,4.10
2022-09-07T12:20:22.692Z,5.00
2022-09-07T12:25:29.552Z,4.80
2022-09-07T12:30:36.078Z,6.40
2022-09-07T12:35:41.664Z,4.00
2022-09-07T12:41:03.180Z,4.40
2022-09-07T12:46:41.666Z,4.00
2022-09-07T12:52:15.987Z,3.90
2022-09-07T12:57:56.844Z,2.70
2022-09-07T13:03:51.311Z,3.40
2022-09-07T13:09:30.409Z,3.20
2022-09-07T13:14:38.432Z,3.30
2022-09-07T13:19:51.162Z,4.00
2022-09-07T13:24:57.155Z,3.00
2022-09-07T13:30:26.043Z,3.60
2022-09-07T13:35:30.998Z,3.20
2022-09-07T13:40:40.691Z,3.50
2022-09-07T13:46:03.017Z,4.70
2022-09-07T13:51:25.474Z,4.20
2022-09-07T13:56:54.596Z,4.90
2022-09-07T14:01:59.209Z,4.30
2022-09-07T14:07:14.255Z,5.80
2022-09-07T14:12:22.272Z,4.90
2022-09-07T14:17:28.316Z,3.50
2022-09-07T14:22:35.709Z,3.30
2022-09-07T14:27:45.894Z,4.40
2022-09-07T14:33:03.446Z,6.80
2022-09-07T14:39:04.056Z,3.40
2022-09-07T14:43:56.800Z,3.60
2022-09-07T14:49:23.348Z,3.50
2022-09-07T14:54:33.287Z,4.60
2022-09-07T14:59:46.729Z,3.20
2022-09-07T15:05:15.845Z,5.40
2022-09-07T15:10:23.193Z,4.90
2022-09-07T15:15:37.476Z,4.20
2022-09-07T15:20:44.357Z,6.90
2022-09-07T15:25:53.925Z,4.80
2022-09-07T15:36:22.101Z,3.20
2022-09-07T15:41:27.504Z,4.90
2022-09-07T15:46:31.319Z,4.70
2022-09-07T16:13:16.700Z,4.10
2022-09-07T16:18:21.004Z,6.20
2022-09-07T16:23:24.578Z,6.50
2022-09-07T16:28:29.814Z,4.70
2022-09-07T16:33:37.025Z,4.40
2022-09-07T16:38:48.623Z,4.20
2022-09-07T16:43:52.364Z,6.80
2022-09-07T16:48:56.153Z,6.30
2022-09-07T16:54:00.210Z,9.40
2022-09-07T16:59:06.523Z,7.40
2022-09-07T17:04:11.388Z,6.40
2022-09-07T17:09:16.293Z,10.20
2022-09-07T17:14:20.542Z,9.70
2022-09-07T17:19:31.884Z,7.70
2022-09-07T17:24:35.753Z,9.90
2022-09-07T17:29:40.726Z,9.20
2022-09-07T17:34:44.285Z,10.30
2022-09-07T17:39:48.284Z,8.60
2022-09-07T17:44:53.055Z,9.70
2022-09-07T17:49:57.266Z,10.30
2022-09-07T17:55:02.551Z,7.20
2022-09-07T18:00:11.304Z,8.30
2022-09-07T18:05:16.272Z,10.10
2022-09-07T18:10:20.561Z,10.40
2022-09-07T18:15:24.227Z,10.70
2022-09-07T18:20:27.947Z,10.20
2022-09-07T18:25:31.649Z,13.70
2022-09-07T18:30:40.307Z,11.10
2022-09-07T18:35:47.776Z,17.40
2022-09-07T18:41:02.187Z,16.70
2022-09-07T18:46:09.238Z,17.00
2022-09-07T18:51:15.130Z,18.10
2022-09-07T18:56:21.973Z,20.00
2022-09-07T19:01:25.733Z,17.30
2022-09-07T19:06:29.289Z,12.60
2022-09-07T19:11:33.213Z,11.20
2022-09-07T19:16:37.320Z,9.80
2022-09-07T19:21:43.352Z,14.50
2022-09-07T19:26:49.448Z,12.80
2022-09-07T19:32:07.250Z,11.10
2022-09-07T19:37:13.736Z,9.40
2022-09-07T19:42:17.455Z,10.20
2022-09-07T19:47:22.344Z,9.10
2022-09-07T19:52:25.906Z,10.90
2022-09-07T19:57:29.461Z,10.60
2022-09-07T20:02:33.056Z,11.20
2022-09-07T20:07:36.574Z,8.50
2022-09-07T20:12:40.397Z,10.80
2022-09-07T20:17:44.122Z,8.00
2022-09-07T20:22:48.401Z,11.20
2022-09-07T20:27:52.098Z,9.70
2022-09-07T20:32:55.653Z,7.90
2022-09-07T20:38:02.179Z,8.00
2022-09-07T20:43:05.799Z,5.10
2022-09-07T20:48:09.256Z,6.40
2022-09-07T20:53:13.492Z,6.30
2022-09-07T20:58:17.262Z,6.00
2022-09-07T21:03:20.988Z,7.90
2022-09-07T21:08:24.435Z,7.80
2022-09-07T21:13:27.911Z,8.90
2022-09-07T21:18:32.013Z,6.70
2022-09-07T21:23:37.413Z,10.70
2022-09-07T21:28:41.126Z,6.80
2022-09-07T21:33:44.642Z,8.00
2022-09-07T21:38:48.272Z,7.10
2022-09-07T21:44:01.402Z,6.70
2022-09-07T21:49:05.154Z,8.40
2022-09-07T21:54:09.051Z,6.30
2022-09-07T21:59:12.874Z,6.60
2022-09-07T22:04:16.357Z,5.30
2022-09-07T22:09:19.961Z,8.60
2022-09-07T22:14:23.534Z,6.80
2022-09-07T22:19:27.142Z,6.70
2022-09-07T22:24:30.557Z,6.50
2022-09-07T22:29:33.957Z,7.20
2022-09-07T22:34:37.262Z,6.70
2022-09-07T22:39:40.661Z,5.70
2022-09-07T22:44:44.007Z,6.40
2022-09-07T22:49:47.319Z,6.00
2022-09-07T22:54:50.839Z,8.00
2022-09-07T22:59:54.352Z,6.80
2022-09-07T23:04:57.928Z,7.70
2022-09-07T23:10:01.318Z,5.00
2022-09-07T23:15:05.459Z,7.50
2022-09-07T23:20:09.593Z,5.90
2022-09-07T23:25:13.665Z,8.30
2022-09-07T23:30:17.094Z,5.30
2022-09-07T23:35:20.400Z,7.00
2022-09-07T23:40:24.467Z,5.90
2022-09-07T23:45:28.234Z,7.00
2022-09-07T23:50:31.969Z,5.30
2022-09-07T23:55:35.491Z,4.60
